Time;durP1;ratioP1;P1;durP2;ratioP2;P2;SDS_P1;SDS_P2;PMS_P1;PMS_P2;Temp;Humidity;BMP_temperature;BMP_pressure;BME280_temperature;BME280_humidity;BME280_pressure;Samples;Min_cycle;Max_cycle;Signal;HPM_P1;HPM_P2
2021/07/10 00:01:35;;;;;;;9.88;5.65;;;;;;;20.82;59.56;101375.47;4823298;29;20058;-63
2021/07/10 00:04:05;;;;;;;9.95;5.75;;;;;;;20.68;60.25;101377.97;4825917;29;20058;-63
2021/07/10 00:06:33;;;;;;;10.85;5.43;;;;;;;20.74;60.33;101375.69;4826392;29;20058;-63
2021/07/10 00:09:00;;;;;;;11.15;5.13;;;;;;;20.92;59.60;101374.91;4828542;29;20065;-63
2021/07/10 00:11:27;;;;;;;9.23;5.57;;;;;;;20.94;59.44;101369.75;4828354;29;20434;-63
2021/07/10 00:13:54;;;;;;;9.75;5.30;;;;;;;20.95;59.57;101376.16;4827730;29;20054;-63
2021/07/10 00:16:22;;;;;;;10.02;5.57;;;;;;;20.89;59.08;101370.03;4827452;29;20058;-63
2021/07/10 00:18:49;;;;;;;9.52;6.63;;;;;;;20.92;59.37;101369.28;4825832;29;20073;-63
2021/07/10 00:21:17;;;;;;;12.73;6.32;;;;;;;20.84;59.30;101363.91;4827454;29;20442;-62
2021/07/10 00:23:44;;;;;;;7.60;4.72;;;;;;;20.78;59.19;101371.00;4827243;29;20161;-63
2021/07/10 00:26:12;;;;;;;7.90;4.95;;;;;;;20.68;59.27;101361.16;4827085;29;20038;-63
2021/07/10 00:28:39;;;;;;;8.80;5.25;;;;;;;20.73;58.54;101357.28;4826938;29;20054;-62
2021/07/10 00:31:07;;;;;;;9.55;4.80;;;;;;;20.69;59.02;101346.00;4827270;29;20056;-63
2021/07/10 00:33:34;;;;;;;11.82;5.38;;;;;;;20.90;58.18;101343.63;4827034;29;20055;-63
2021/07/10 00:36:02;;;;;;;11.23;5.35;;;;;;;20.94;58.27;101336.13;4827161;29;20078;-65
2021/07/10 00:38:29;;;;;;;9.45;4.85;;;;;;;21.04;58.08;101329.19;4826880;29;20062;-63
2021/07/10 00:40:57;;;;;;;10.68;5.07;;;;;;;20.85;58.13;101332.72;4825764;29;20073;-63
2021/07/10 00:43:24;;;;;;;9.10;5.28;;;;;;;20.99;57.44;101326.69;4825051;29;20487;-63
2021/07/10 00:45:51;;;;;;;9.35;5.40;;;;;;;21.11;57.62;101334.94;4825457;29;20415;-63
2021/07/10 00:48:21;;;;;;;10.38;5.40;;;;;;;20.99;57.77;101330.28;4826396;29;20178;-64
2021/07/10 00:50:48;;;;;;;11.57;4.90;;;;;;;20.97;57.51;101334.59;4825569;29;20058;-63
2021/07/10 00:53:16;;;;;;;13.85;5.38;;;;;;;21.01;57.31;101332.69;4827090;29;20055;-63
2021/07/10 00:55:43;;;;;;;8.02;5.18;;;;;;;21.11;57.11;101324.50;4826931;29;20058;-64
2021/07/10 00:58:11;;;;;;;11.70;5.32;;;;;;;21.03;57.55;101321.94;4826539;29;20054;-63
2021/07/10 01:00:40;;;;;;;8.38;5.03;;;;;;;21.06;57.59;101307.22;4827098;29;20063;-63
2021/07/10 01:03:08;;;;;;;9.25;4.35;;;;;;;21.16;56.36;101309.41;4826329;29;20059;-64
2021/07/10 01:05:37;;;;;;;8.80;4.80;;;;;;;20.82;57.46;101299.88;4826473;29;20042;-63
2021/07/10 01:08:05;;;;;;;9.80;5.30;;;;;;;21.07;56.85;101300.41;4826391;29;20062;-63
2021/07/10 01:10:32;;;;;;;7.53;4.72;;;;;;;21.05;56.95;101299.97;4825163;29;20062;-62
2021/07/10 01:12:59;;;;;;;7.95;4.65;;;;;;;20.94;57.34;101296.91;4826410;29;20499;-63
2021/07/10 01:15:27;;;;;;;17.55;8.88;;;;;;;21.13;56.71;101296.16;4826110;29;20062;-63
2021/07/10 01:17:57;;;;;;;9.52;5.70;;;;;;;21.08;56.52;101294.44;4825046;29;20054;-63
2021/07/10 01:20:27;;;;;;;17.10;9.75;;;;;;;21.02;56.42;101281.94;4826845;29;20740;-63
2021/07/10 01:22:56;;;;;;;9.17;5.00;;;;;;;21.20;56.12;101276.66;4826374;29;20059;-64
2021/07/10 01:25:25;;;;;;;9.38;4.50;;;;;;;21.22;55.36;101279.88;4825163;29;20058;-64
2021/07/10 01:27:54;;;;;;;8.73;4.82;;;;;;;20.99;56.43;101268.63;4825885;29;20063;-64
2021/07/10 01:30:22;;;;;;;9.10;5.10;;;;;;;20.62;57.26;101267.47;4825069;29;20160;-62
2021/07/10 01:32:52;;;;;;;10.35;4.97;;;;;;;20.85;57.04;101261.94;4826612;29;20069;-63
2021/07/10 01:35:20;;;;;;;8.77;5.40;;;;;;;20.89;56.74;101257.19;4827188;29;20069;-63
2021/07/10 01:37:47;;;;;;;10.02;4.60;;;;;;;20.86;57.14;101255.16;4826307;29;20495;-63
2021/07/10 01:40:17;;;;;;;10.00;4.85;;;;;;;20.98;56.97;101252.19;4826428;29;20058;-62
2021/07/10 01:42:45;;;;;;;8.27;4.97;;;;;;;20.97;56.78;101242.16;4826109;29;20054;-63
2021/07/10 01:45:13;;;;;;;11.50;4.95;;;;;;;20.92;57.16;101246.06;4826186;29;20419;-63
2021/07/10 01:47:40;;;;;;;12.68;4.78;;;;;;;20.50;58.00;101242.41;4824650;29;20058;-63
2021/07/10 01:50:09;;;;;;;8.30;5.15;;;;;;;20.58;58.06;101246.97;4825468;29;20062;-63
2021/07/10 01:52:37;;;;;;;8.95;4.82;;;;;;;20.62;57.89;101238.66;4825912;29;20054;-63
2021/07/10 01:55:06;;;;;;;9.00;4.53;;;;;;;20.49;58.42;101237.16;4825642;29;20066;-63
2021/07/10 01:57:33;;;;;;;10.10;4.65;;;;;;;20.44;58.91;101232.69;4825887;29;20065;-62
2021/07/10 02:00:07;;;;;;;9.98;4.72;;;;;;;20.50;59.01;101220.03;4824791;29;20423;-64
2021/07/10 02:02:34;;;;;;;8.95;4.75;;;;;;;20.33;59.43;101234.44;4824675;29;20065;-63
2021/07/10 02:05:02;;;;;;;11.55;4.80;;;;;;;20.36;59.47;101225.31;4825788;29;20062;-63
2021/07/10 02:07:29;;;;;;;8.48;4.90;;;;;;;20.00;60.26;101220.88;4825762;29;20061;-63
2021/07/10 02:09:57;;;;;;;8.05;5.07;;;;;;;20.17;60.41;101224.47;4825552;29;20058;-64
2021/07/10 02:12:24;;;;;;;8.95;5.03;;;;;;;20.19;60.36;101219.34;4825675;29;20062;-65
2021/07/10 02:14:51;;;;;;;11.82;5.13;;;;;;;20.08;60.94;101219.84;4825978;29;20061;-63
2021/07/10 02:17:19;;;;;;;11.73;5.07;;;;;;;20.09;60.70;101223.47;4824529;29;20055;-63
2021/07/10 02:19:46;;;;;;;12.02;5.22;;;;;;;20.10;60.83;101220.31;4825602;29;20055;-63
2021/07/10 02:22:13;;;;;;;9.73;5.20;;;;;;;20.50;59.52;101211.63;4825713;29;20058;-64
2021/07/10 02:24:41;;;;;;;13.32;5.10;;;;;;;20.52;59.34;101208.47;4825456;29;20055;-63
2021/07/10 02:27:08;;;;;;;12.15;5.13;;;;;;;20.48;59.56;101210.38;4824841;29;20058;-64
2021/07/10 02:29:35;;;;;;;10.48;5.05;;;;;;;20.55;59.69;101214.13;4824040;29;20062;-62
2021/07/10 02:32:03;;;;;;;9.82;5.18;;;;;;;20.52;59.48;101209.25;4825587;29;20058;-63
2021/07/10 02:34:30;;;;;;;10.63;5.15;;;;;;;20.43;59.86;101208.69;4825446;29;20058;-62
2021/07/10 02:36:57;;;;;;;9.10;5.22;;;;;;;20.60;59.38;101202.63;4825200;29;20062;-64
2021/07/10 02:39:25;;;;;;;10.05;5.35;;;;;;;20.54;59.10;101192.91;4825191;29;20062;-63
2021/07/10 02:41:52;;;;;;;9.23;5.20;;;;;;;20.44;59.80;101198.28;4825316;29;20054;-64
2021/07/10 02:44:19;;;;;;;12.57;5.57;;;;;;;20.43;60.01;101199.47;4825412;29;20054;-63
2021/07/10 02:46:47;;;;;;;10.85;5.78;;;;;;;20.39;59.76;101202.19;4825353;29;20061;-65
2021/07/10 02:49:14;;;;;;;10.93;5.10;;;;;;;20.37;60.06;101203.72;4838649;29;20073;-64
2021/07/10 02:51:41;;;;;;;9.40;5.13;;;;;;;20.39;60.11;101191.00;4825288;29;20058;-63
2021/07/10 02:54:09;;;;;;;14.45;4.68;;;;;;;20.40;60.46;101192.59;4824027;29;20054;-64
2021/07/10 02:56:36;;;;;;;9.13;4.95;;;;;;;20.50;60.27;101191.22;4825850;29;20054;-62
2021/07/10 02:59:03;;;;;;;9.38;5.07;;;;;;;20.57;59.73;101185.78;4825615;29;20046;-63
2021/07/10 03:01:31;;;;;;;10.23;4.70;;;;;;;20.39;60.16;101178.97;4825572;29;20082;-64
2021/07/10 03:03:58;;;;;;;10.00;5.03;;;;;;;20.40;60.14;101180.63;4825556;29;20093;-64
2021/07/10 03:06:25;;;;;;;7.60;4.90;;;;;;;20.32;60.33;101176.84;4823513;29;20070;-63
2021/07/10 03:08:53;;;;;;;9.27;5.43;;;;;;;20.14;60.87;101170.84;4825132;29;20054;-63
2021/07/10 03:11:20;;;;;;;10.73;5.72;;;;;;;20.10;61.33;101172.75;4823606;29;20058;-63
2021/07/10 03:13:48;;;;;;;8.95;4.50;;;;;;;20.01;61.98;101163.75;4823772;29;20055;-64
2021/07/10 03:16:15;;;;;;;9.32;5.22;;;;;;;19.99;62.08;101170.91;4823523;29;20061;-63
2021/07/10 03:18:42;;;;;;;7.93;5.15;;;;;;;19.98;62.02;101170.09;4824971;29;20531;-63
2021/07/10 03:21:09;;;;;;;10.50;4.97;;;;;;;20.03;61.93;101171.81;4825143;29;20057;-64
2021/07/10 03:23:37;;;;;;;9.48;5.13;;;;;;;19.84;62.71;101164.16;4823755;29;20065;-62
2021/07/10 03:26:05;;;;;;;13.20;5.18;;;;;;;19.89;62.74;101161.09;4807925;29;20059;-63
2021/07/10 03:28:32;;;;;;;7.35;4.80;;;;;;;20.12;62.20;101158.41;4824727;29;20054;-63
2021/07/10 03:30:59;;;;;;;9.05;5.40;;;;;;;19.99;62.49;101160.53;4825047;29;20058;-64
2021/07/10 03:33:27;;;;;;;11.13;5.75;;;;;;;20.07;62.46;101155.91;4825182;29;20089;-62
2021/07/10 03:35:54;;;;;;;12.63;5.63;;;;;;;19.95;62.76;101156.84;4826071;29;20062;-62
2021/07/10 03:38:21;;;;;;;10.35;5.43;;;;;;;19.90;63.02;101156.31;4826887;29;20057;-64
2021/07/10 03:40:48;;;;;;;17.00;5.70;;;;;;;19.47;64.54;101162.91;4828075;29;20055;-63
2021/07/10 03:43:16;;;;;;;12.38;5.78;;;;;;;19.53;64.38;101158.66;4827709;29;20053;-64
2021/07/10 03:45:43;;;;;;;6.72;4.65;;;;;;;19.68;63.91;101165.41;4825983;29;20431;-64
2021/07/10 03:48:10;;;;;;;12.20;5.60;;;;;;;19.58;64.20;101163.97;4828266;29;20070;-63
2021/07/10 03:50:38;;;;;;;9.00;5.38;;;;;;;19.90;63.34;101165.53;4828941;29;20058;-64
2021/07/10 03:53:05;;;;;;;12.50;5.32;;;;;;;19.94;63.09;101154.41;4828185;29;20058;-63
2021/07/10 03:55:32;;;;;;;10.80;5.15;;;;;;;19.73;63.69;101160.34;4827645;29;20062;-63
2021/07/10 03:58:01;;;;;;;11.98;5.55;;;;;;;19.67;64.47;101163.75;4827203;29;20054;-63
2021/07/10 04:00:29;;;;;;;11.57;5.75;;;;;;;19.93;63.76;101161.16;4827616;29;20065;-63
2021/07/10 04:02:56;;;;;;;10.35;5.20;;;;;;;19.76;64.06;101165.19;4827617;29;20443;-63
2021/07/10 04:05:23;;;;;;;8.85;5.65;;;;;;;19.78;64.53;101168.44;4827949;29;20450;-64
2021/07/10 04:07:51;;;;;;;8.80;5.13;;;;;;;19.83;64.38;101158.94;4826344;29;20057;-64
2021/07/10 04:10:18;;;;;;;10.80;5.70;;;;;;;19.93;64.25;101166.75;4827809;29;20069;-67
2021/07/10 04:12:46;;;;;;;12.80;5.72;;;;;;;19.67;64.76;101161.78;4828075;29;20066;-63
2021/07/10 04:15:15;;;;;;;8.68;5.78;;;;;;;19.73;64.88;101163.13;4828108;29;20447;-63
2021/07/10 04:17:42;;;;;;;10.00;5.50;;;;;;;19.74;64.80;101163.94;4826459;29;20491;-66
2021/07/10 04:20:11;;;;;;;10.68;5.40;;;;;;;19.88;64.79;101162.28;4827548;29;20077;-64
2021/07/10 04:22:39;;;;;;;10.35;5.53;;;;;;;19.78;64.88;101164.84;4827936;29;20050;-64
2021/07/10 04:25:09;;;;;;;8.68;5.10;;;;;;;19.89;64.63;101163.09;4829162;29;20054;-64
2021/07/10 04:27:38;;;;;;;11.85;5.32;;;;;;;20.06;64.49;101160.69;4828655;29;20069;-64
2021/07/10 04:30:07;;;;;;;10.23;4.93;;;;;;;20.04;64.12;101157.44;4827506;29;20065;-63
2021/07/10 04:32:34;;;;;;;11.20;5.43;;;;;;;20.10;64.23;101158.75;4826218;29;20303;-63
2021/07/10 04:35:03;;;;;;;8.35;5.05;;;;;;;19.83;64.57;101156.16;4825928;29;20054;-62
2021/07/10 04:37:30;;;;;;;8.15;5.30;;;;;;;19.90;64.83;101159.13;4827328;29;20047;-62
2021/07/10 04:39:57;;;;;;;8.25;4.80;;;;;;;20.00;64.51;101152.94;4826560;29;20062;-63
2021/07/10 04:42:29;;;;;;;8.05;4.65;;;;;;;20.04;63.95;101156.63;4825562;29;20054;-63
2021/07/10 04:44:56;;;;;;;7.10;4.45;;;;;;;20.14;63.74;101151.28;4826932;29;20426;-63
2021/07/10 04:47:23;;;;;;;10.45;4.95;;;;;;;19.93;64.59;101158.38;4825416;29;20050;-63
2021/07/10 04:49:51;;;;;;;8.45;4.38;;;;;;;20.06;63.97;101154.28;4824405;29;20062;-63
2021/07/10 04:52:18;;;;;;;10.75;4.47;;;;;;;19.76;64.30;101154.03;4826049;29;20157;-64
2021/07/10 04:54:45;;;;;;;10.63;4.97;;;;;;;19.60;65.22;101161.63;4827625;29;20058;-63
2021/07/10 04:57:12;;;;;;;10.75;4.90;;;;;;;19.80;64.85;101163.31;4827103;29;20392;-63
2021/07/10 04:59:40;;;;;;;11.55;4.53;;;;;;;19.91;64.31;101169.94;4826947;29;20646;-63
2021/07/10 05:02:07;;;;;;;7.95;4.47;;;;;;;19.94;64.50;101165.59;4826899;29;20063;-63
2021/07/10 05:04:34;;;;;;;9.25;4.72;;;;;;;19.70;65.35;101165.84;4826423;29;20054;-63
2021/07/10 05:07:02;;;;;;;7.65;4.85;;;;;;;19.51;66.44;101168.59;4826345;29;20059;-67
2021/07/10 05:09:29;;;;;;;8.20;4.97;;;;;;;19.59;66.48;101173.16;4809681;29;20058;-63
2021/07/10 05:11:56;;;;;;;11.48;4.93;;;;;;;19.63;66.65;101180.44;4809471;29;20063;-63
2021/07/10 05:14:24;;;;;;;9.65;4.82;;;;;;;19.65;66.30;101169.72;4826471;29;20065;-63
2021/07/10 05:16:51;;;;;;;9.95;4.95;;;;;;;19.42;67.26;101168.75;4826627;29;20054;-64
2021/07/10 05:19:18;;;;;;;8.35;4.63;;;;;;;19.35;67.79;101170.56;4826043;29;20047;-63
2021/07/10 05:21:45;;;;;;;8.50;4.60;;;;;;;19.46;67.53;101175.25;4826396;29;20054;-63
2021/07/10 05:24:13;;;;;;;8.13;5.18;;;;;;;19.43;67.58;101169.56;4826343;29;20422;-66
2021/07/10 05:26:40;;;;;;;9.10;4.70;;;;;;;19.40;67.52;101171.13;4826702;29;20058;-63
2021/07/10 05:29:07;;;;;;;10.85;5.20;;;;;;;19.15;68.95;101177.19;4810186;29;20058;-63
2021/07/10 05:31:34;;;;;;;8.75;4.70;;;;;;;19.34;68.36;101180.13;4826207;29;20157;-63
2021/07/10 05:34:02;;;;;;;11.27;5.13;;;;;;;19.36;67.68;101166.59;4824579;29;20069;-63
2021/07/10 05:36:29;;;;;;;10.30;4.80;;;;;;;19.12;68.82;101169.56;4826069;29;20057;-65
2021/07/10 05:38:56;;;;;;;9.00;4.95;;;;;;;19.18;68.99;101174.50;4825906;29;20053;-64
2021/07/10 05:41:23;;;;;;;14.25;4.78;;;;;;;19.21;68.58;101170.19;4826050;29;20062;-62
2021/07/10 05:43:51;;;;;;;9.55;4.88;;;;;;;19.43;68.07;101159.22;4824780;29;20058;-63
2021/07/10 05:46:19;;;;;;;9.23;4.93;;;;;;;19.58;67.59;101154.78;4826245;29;20058;-63
2021/07/10 05:48:46;;;;;;;7.38;4.70;;;;;;;19.51;67.41;101154.63;4826339;29;20055;-63
2021/07/10 05:51:13;;;;;;;9.93;5.13;;;;;;;19.35;67.83;101151.03;4826747;29;20059;-63
2021/07/10 05:53:41;;;;;;;12.73;5.60;;;;;;;19.20;68.69;101149.00;4827821;29;20050;-63
2021/07/10 05:56:08;;;;;;;9.52;4.75;;;;;;;19.49;67.65;101156.97;4825394;29;20073;-62
2021/07/10 05:58:35;;;;;;;8.10;4.63;;;;;;;19.07;68.35;101151.09;4826251;29;20047;-62
2021/07/10 06:01:03;;;;;;;9.32;4.85;;;;;;;18.91;69.18;101147.47;4823667;29;20059;-63
2021/07/10 06:03:30;;;;;;;7.13;4.50;;;;;;;18.82;70.14;101144.84;4825632;29;20062;-63
2021/07/10 06:05:57;;;;;;;10.60;4.95;;;;;;;18.99;69.08;101141.72;4824077;29;20431;-64
2021/07/10 06:08:25;;;;;;;8.27;4.55;;;;;;;18.79;69.55;101147.56;4825431;29;20054;-63
2021/07/10 06:10:52;;;;;;;8.50;4.47;;;;;;;18.93;69.34;101140.34;4825156;29;20047;-62
2021/07/10 06:13:19;;;;;;;9.70;4.38;;;;;;;19.60;67.67;101144.03;4825176;29;20713;-63
2021/07/10 06:15:47;;;;;;;11.02;4.80;;;;;;;19.61;66.48;101152.06;4825382;29;20484;-63
2021/07/10 06:18:14;;;;;;;11.23;4.80;;;;;;;19.76;65.74;101140.03;4824039;29;20050;-63
2021/07/10 06:20:41;;;;;;;9.93;4.35;;;;;;;19.90;65.15;101134.78;4824132;29;20058;-63
2021/07/10 06:23:08;;;;;;;9.77;4.95;;;;;;;19.33;66.31;101131.84;4826526;29;20062;-65
2021/07/10 06:25:37;;;;;;;8.10;4.53;;;;;;;19.57;65.98;101142.78;4829225;29;20058;-61
2021/07/10 06:28:06;;;;;;;9.10;5.50;;;;;;;19.64;65.57;101142.13;4826451;29;20056;-62
2021/07/10 06:30:33;;;;;;;8.13;4.20;;;;;;;19.63;65.52;101143.31;4825710;29;20414;-61
2021/07/10 06:33:01;;;;;;;8.05;3.85;;;;;;;19.38;65.64;101139.94;4825723;29;20387;-61
2021/07/10 06:35:28;;;;;;;8.57;4.20;;;;;;;19.54;65.35;101140.72;4824385;29;20062;-61
2021/07/10 06:37:55;;;;;;;6.20;4.03;;;;;;;19.85;63.61;101145.41;4825213;29;20057;-61
2021/07/10 06:40:23;;;;;;;8.07;4.60;;;;;;;19.41;64.95;101136.41;4825066;29;20062;-61
2021/07/10 06:42:50;;;;;;;9.50;4.13;;;;;;;19.53;64.95;101129.88;4823157;29;20699;-61
2021/07/10 06:45:18;;;;;;;7.47;3.83;;;;;;;20.07;63.33;101128.75;4804848;29;20400;-61
2021/07/10 06:47:47;;;;;;;8.23;4.55;;;;;;;19.72;63.40;101129.94;4806217;29;20055;-60
2021/07/10 06:50:17;;;;;;;7.68;4.28;;;;;;;19.98;63.18;101127.31;4821163;29;20239;-61
2021/07/10 06:52:44;;;;;;;;;;;;;;;20.00;62.50;101123.00;4825438;29;20065;-60
2021/07/10 06:55:12;;;;;;;7.85;4.10;;;;;;;19.91;63.09;101130.78;4825166;29;19931;-61
2021/07/10 06:57:40;;;;;;;13.57;5.38;;;;;;;19.84;62.51;101129.84;4825031;29;20693;-62
2021/07/10 07:00:10;;;;;;;18.58;6.57;;;;;;;19.87;62.75;101117.91;4824820;29;20750;-62
2021/07/10 07:02:38;;;;;;;15.13;6.03;;;;;;;20.10;61.91;101125.19;4824870;29;20069;-61
2021/07/10 07:05:06;;;;;;;16.15;5.30;;;;;;;20.02;62.05;101126.25;4823637;29;20050;-61
2021/07/10 07:07:34;;;;;;;13.45;5.32;;;;;;;20.12;61.57;101128.44;4825136;29;20475;-61
2021/07/10 07:10:03;;;;;;;14.90;5.20;;;;;;;20.33;60.69;101110.53;4824775;29;20061;-61
2021/07/10 07:12:30;;;;;;;14.77;4.78;;;;;;;20.35;60.54;101113.75;4826151;29;20054;-60
2021/07/10 07:14:58;;;;;;;10.23;4.30;;;;;;;20.60;59.97;101112.25;4829016;29;20062;-61
2021/07/10 07:17:25;;;;;;;11.27;4.03;;;;;;;20.39;61.03;101109.03;4829185;29;20062;-61
2021/07/10 07:19:53;;;;;;;6.90;4.10;;;;;;;20.44;61.78;101106.75;4828451;29;20042;-61
2021/07/10 07:22:20;;;;;;;13.10;5.28;;;;;;;20.35;61.31;101106.16;4828587;29;20050;-62
2021/07/10 07:24:47;;;;;;;12.77;5.93;;;;;;;20.23;61.26;101111.09;4828308;29;20058;-60
2021/07/10 07:27:14;;;;;;;10.40;4.85;;;;;;;20.09;62.57;101100.41;4826781;29;20065;-62
2021/07/10 07:29:42;;;;;;;13.45;6.10;;;;;;;20.31;61.93;101107.28;4826791;29;20046;-61
2021/07/10 07:32:09;;;;;;;16.90;7.50;;;;;;;20.34;61.72;101096.16;4826520;29;20058;-60
2021/07/10 07:34:37;;;;;;;14.13;6.32;;;;;;;19.99;61.13;101101.00;4827962;29;20046;-61
2021/07/10 07:37:04;;;;;;;16.90;7.35;;;;;;;19.86;61.86;101100.31;4827385;29;20058;-61
2021/07/10 07:39:31;;;;;;;24.33;8.77;;;;;;;20.28;60.79;101091.22;4809869;29;20051;-62
2021/07/10 07:41:58;;;;;;;21.58;7.85;;;;;;;20.09;61.07;101103.19;4808161;29;20051;-61
2021/07/10 07:44:25;;;;;;;19.63;7.57;;;;;;;20.11;61.08;101104.47;4826903;29;20069;-61
2021/07/10 07:46:53;;;;;;;18.85;6.95;;;;;;;20.23;61.03;101105.50;4826566;29;20050;-62
2021/07/10 07:49:20;;;;;;;12.27;5.90;;;;;;;20.22;60.79;101090.72;4827335;29;20062;-61
2021/07/10 07:51:47;;;;;;;10.75;4.97;;;;;;;20.34;59.12;101096.16;4826249;29;20062;-62
2021/07/10 07:54:14;;;;;;;14.70;8.10;;;;;;;20.25;59.73;101094.75;4825816;29;20428;-60
2021/07/10 07:56:42;;;;;;;8.80;4.20;;;;;;;20.38;59.15;101091.44;4826956;29;20059;-60
2021/07/10 07:59:09;;;;;;;8.65;3.42;;;;;;;20.10;59.59;101094.44;4825855;29;20415;-62
2021/07/10 08:01:36;;;;;;;7.95;3.60;;;;;;;20.61;64.87;101088.66;4826240;29;20530;-42
2021/07/10 08:04:04;;;;;;;8.45;3.40;;;;;;;22.75;58.17;101086.19;4825167;29;20420;-43
2021/07/10 08:06:31;;;;;;;7.75;3.97;;;;;;;23.42;55.15;101081.16;4816775;29;20061;-41
2021/07/10 08:08:58;;;;;;;7.57;3.38;;;;;;;23.86;53.09;101078.19;4826631;29;20046;-42
2021/07/10 08:11:26;;;;;;;5.80;3.03;;;;;;;24.02;53.50;101079.53;4826614;29;20054;-42
2021/07/10 08:13:53;;;;;;;12.95;3.95;;;;;;;24.05;50.55;101078.72;4823594;29;20058;-42
2021/07/10 08:16:20;;;;;;;7.47;3.42;;;;;;;24.05;50.31;101084.38;4820735;29;20573;-41
2021/07/10 08:18:48;;;;;;;6.72;3.22;;;;;;;23.89;50.34;101083.84;4817432;29;20192;-41
2021/07/10 08:21:15;;;;;;;4.55;2.42;;;;;;;23.68;49.93;101083.72;4808280;29;20042;-43
2021/07/10 08:23:42;;;;;;;10.07;2.42;;;;;;;23.71;49.78;101082.16;4822945;29;20062;-42
2021/07/10 08:26:11;;;;;;;14.40;3.05;;;;;;;23.74;50.19;101073.72;4825938;29;20062;-41
2021/07/10 08:28:39;;;;;;;3.15;1.90;;;;;;;23.54;48.22;101078.03;4826535;29;20084;-41
2021/07/10 08:31:06;;;;;;;5.00;1.92;;;;;;;23.38;49.57;101074.69;4826413;29;20058;-42
2021/07/10 08:33:34;;;;;;;5.35;2.20;;;;;;;23.43;47.57;101069.50;4826922;29;20406;-41
2021/07/10 08:36:01;;;;;;;3.90;2.20;;;;;;;23.48;46.39;101068.34;4825275;29;20077;-41
2021/07/10 08:38:29;;;;;;;5.25;2.10;;;;;;;23.38;47.28;101060.63;4826702;29;20077;-42
2021/07/10 08:40:56;;;;;;;3.22;2.03;;;;;;;23.20;47.18;101063.31;4826511;29;20439;-43
2021/07/10 08:43:23;;;;;;;4.20;2.10;;;;;;;22.78;48.05;101068.56;4826859;29;20060;-43
2021/07/10 08:45:51;;;;;;;4.32;2.00;;;;;;;23.14;48.31;101066.84;4826559;29;20422;-43
2021/07/10 08:48:18;;;;;;;4.95;1.90;;;;;;;23.36;47.52;101060.25;4825433;29;20065;-41
2021/07/10 08:50:45;;;;;;;4.45;1.90;;;;;;;23.39;47.05;101068.69;4825197;29;20562;-42
2021/07/10 08:53:12;;;;;;;5.20;2.10;;;;;;;23.39;47.04;101073.50;4826564;29;20057;-41
2021/07/10 08:55:40;;;;;;;4.80;2.03;;;;;;;23.44;47.33;101078.75;4824601;29;20724;-45
2021/07/10 08:58:07;;;;;;;5.20;2.33;;;;;;;23.46;46.87;101072.75;4824881;29;20058;-42
2021/07/10 09:00:37;;;;;;;5.93;2.30;;;;;;;23.43;47.06;101075.13;4822508;29;20050;-43
2021/07/10 09:03:05;;;;;;;;;;;;;;;23.48;47.08;101078.78;4825262;29;20058;-40
2021/07/10 09:05:33;;;;;;;11.48;2.80;;;;;;;23.55;46.92;101082.47;4823106;29;19924;-42
2021/07/10 09:08:25;;;;;;;4.40;2.08;;;;;;;23.62;46.72;101090.13;4817661;29;20517;-42
2021/07/10 09:11:02;;;;;;;4.30;2.35;;;;;;;23.66;47.58;101094.56;4816821;29;20034;-44
2021/07/10 09:13:36;;;;;;;5.78;2.05;;;;;;;23.69;46.97;101095.81;4817889;29;20050;-42
2021/07/10 09:16:25;;;;;;;4.20;2.33;;;;;;;23.73;47.16;101088.97;4818154;29;20916;-42
2021/07/10 09:19:07;;;;;;;5.72;2.35;;;;;;;23.75;47.17;101092.22;4817689;29;20054;-42
2021/07/10 09:21:39;;;;;;;6.47;2.25;;;;;;;23.75;47.41;101092.22;4816076;29;20054;-42
2021/07/10 09:24:19;;;;;;;6.47;2.35;;;;;;;23.79;47.59;101093.03;4817155;29;20062;-43
2021/07/10 09:26:48;;;;;;;8.10;1.92;;;;;;;23.84;50.02;101092.66;4818794;29;20058;-42
2021/07/10 09:29:18;;;;;;;4.45;1.98;;;;;;;23.86;50.42;101087.47;4820628;29;20054;-43
2021/07/10 09:31:47;;;;;;;5.85;2.20;;;;;;;23.86;52.88;101081.00;4817737;29;20145;-42
2021/07/10 09:34:20;;;;;;;7.55;2.53;;;;;;;23.80;50.82;101080.59;4801810;29;20110;-42
2021/07/10 09:36:51;;;;;;;11.30;3.20;;;;;;;23.79;56.61;101076.16;4822999;29;20057;-41
2021/07/10 09:39:19;;;;;;;7.30;3.10;;;;;;;23.87;58.54;101074.22;4822868;29;20053;-43
2021/07/10 09:41:46;;;;;;;8.32;3.25;;;;;;;23.81;56.45;101073.78;4822833;29;20054;-42
2021/07/10 09:44:15;;;;;;;19.05;3.38;;;;;;;23.78;54.14;101071.72;4822786;29;20498;-42
2021/07/10 09:46:43;;;;;;;12.20;2.83;;;;;;;23.82;53.89;101052.88;4822113;29;20502;-43
2021/07/10 09:49:22;;;;;;;16.35;3.45;;;;;;;23.81;52.11;101047.63;4820804;29;20058;-41
2021/07/10 09:52:02;;;;;;;8.00;2.45;;;;;;;23.74;51.94;101045.59;4817618;29;20054;-42
2021/07/10 09:54:31;;;;;;;6.57;2.50;;;;;;;23.74;51.11;101056.84;4823744;29;20062;-42
2021/07/10 09:57:04;;;;;;;3.97;1.92;;;;;;;23.69;50.29;101062.84;4822624;29;20057;-42
2021/07/10 09:59:35;;;;;;;5.88;2.50;;;;;;;23.69;50.98;101062.84;4822752;29;20058;-42
2021/07/10 10:02:08;;;;;;;7.22;2.17;;;;;;;23.70;50.25;101066.47;4823197;29;20062;-42
2021/07/10 10:04:36;;;;;;;4.45;2.47;;;;;;;23.71;49.83;101059.66;4807168;29;20537;-42
2021/07/10 10:07:09;;;;;;;7.00;2.53;;;;;;;23.78;50.48;101046.41;4822943;29;20066;-42
2021/07/10 10:09:37;;;;;;;6.20;2.65;;;;;;;23.77;49.95;101032.72;4822701;29;20065;-43
2021/07/10 10:12:13;;;;;;;5.93;2.80;;;;;;;23.80;49.84;101040.41;4822333;29;20057;-43
2021/07/10 10:14:52;;;;;;;4.72;2.35;;;;;;;23.74;50.55;101051.22;4806797;29;20535;-42
2021/07/10 10:17:21;;;;;;;8.95;2.42;;;;;;;23.60;50.34;101050.34;4822211;29;20074;-43
2021/07/10 10:19:49;;;;;;;5.88;2.00;;;;;;;23.63;50.08;101055.97;4820569;29;20058;-42
2021/07/10 10:22:17;;;;;;;4.53;2.40;;;;;;;23.72;50.36;101053.63;4822974;29;20055;-42
2021/07/10 10:24:47;;;;;;;5.57;2.20;;;;;;;23.82;50.06;101052.03;4821885;29;20061;-41
2021/07/10 10:27:15;;;;;;;8.43;2.47;;;;;;;23.85;50.29;101057.69;4822898;29;20167;-42
2021/07/10 10:29:44;;;;;;;3.88;2.30;;;;;;;23.83;50.56;101050.88;4822042;29;20046;-42
2021/07/10 10:32:12;;;;;;;5.93;2.17;;;;;;;23.85;50.38;101046.44;4822223;29;20054;-43
2021/07/10 10:34:40;;;;;;;6.05;2.17;;;;;;;23.81;50.30;101040.00;4821988;29;20070;-42
2021/07/10 10:37:09;;;;;;;5.43;2.00;;;;;;;23.78;50.62;101043.59;4821115;29;20061;-43
2021/07/10 10:39:37;;;;;;;6.22;2.35;;;;;;;23.84;50.60;101042.03;4822470;29;20058;-42
2021/07/10 10:42:15;;;;;;;4.38;2.00;;;;;;;23.96;51.00;101038.84;4822575;29;20058;-42
2021/07/10 10:44:43;;;;;;;6.45;2.03;;;;;;;24.07;52.62;101033.28;4823385;29;20066;-43
2021/07/10 10:47:12;;;;;;;3.72;2.00;;;;;;;24.08;51.14;101037.72;4805066;29;20077;-41
2021/07/10 10:49:48;;;;;;;7.50;2.25;;;;;;;24.09;50.80;101040.16;4821843;29;20058;-42
2021/07/10 10:52:24;;;;;;;9.57;2.22;;;;;;;24.11;50.67;101040.53;4823278;29;20062;-41
2021/07/10 10:54:58;;;;;;;6.05;2.20;;;;;;;24.13;50.46;101026.88;4820081;29;20616;-42
2021/07/10 10:57:30;;;;;;;4.68;1.92;;;;;;;24.21;50.15;101036.97;4822565;29;20065;-42
2021/07/10 10:59:58;;;;;;;5.47;1.92;;;;;;;24.25;50.03;101034.94;4820546;29;20081;-45
2021/07/10 11:02:25;;;;;;;7.50;2.55;;;;;;;23.88;50.85;101042.03;4820686;29;20517;-44
2021/07/10 11:04:57;;;;;;;4.72;2.55;;;;;;;22.43;50.40;101033.69;4822047;29;20051;-43
2021/07/10 11:07:29;;;;;;;5.80;2.30;;;;;;;22.96;51.29;101027.38;4836700;29;20054;-43
2021/07/10 11:10:02;;;;;;;4.13;2.33;;;;;;;23.50;51.93;101034.22;4821910;29;20062;-49
2021/07/10 11:12:48;;;;;;;4.28;2.20;;;;;;;23.84;50.17;101039.22;4819585;29;20065;-41
2021/07/10 11:15:24;;;;;;;5.65;2.30;;;;;;;24.01;49.52;101029.25;4821901;29;20450;-42
2021/07/10 11:18:02;;;;;;;4.97;2.15;;;;;;;24.03;48.58;101030.47;4821829;29;20136;-42
2021/07/10 11:20:47;;;;;;;5.57;2.28;;;;;;;23.99;49.16;101029.66;4822113;29;20054;-41
2021/07/10 11:23:26;;;;;;;3.67;1.98;;;;;;;23.96;48.64;101027.59;4822042;29;20074;-40
2021/07/10 11:26:02;;;;;;;4.75;2.00;;;;;;;23.89;48.87;101029.56;4821429;29;20064;-41
2021/07/10 11:28:53;;;;;;;4.07;1.63;;;;;;;23.36;49.71;101032.91;4821182;29;20054;-41